Time;durP1;ratioP1;P1;durP2;ratioP2;P2;SDS_P1;SDS_P2;PMS_P1;PMS_P2;Temp;Humidity;BMP_temperature;BMP_pressure;BME280_temperature;BME280_humidity;BME280_pressure;Samples;Min_cycle;Max_cycle;Signal;HPM_P1;HPM_P2
2022/12/29 00:01:44;;;;;;;;;;;21.80;38.40;;;;;;8323878;28;19917;-42
2022/12/29 00:05:44;;;;;;;;;;;21.80;38.50;;;;;;8312331;28;19928;-42
2022/12/29 00:09:45;;;;;;;;;;;21.70;38.40;;;;;;8335639;28;20019;-42
2022/12/29 00:18:05;;;;;;;;;;;21.70;39.00;;;;;;8339349;28;19944;-42
2022/12/29 00:35:43;;;;;;;;;;;21.70;38.30;;;;;;8334736;28;19924;-43
2022/12/29 00:44:06;;;;;;;;;;;21.70;38.30;;;;;;8334499;28;19971;-42
2022/12/29 00:48:07;;;;;;;;;;;21.70;38.30;;;;;;8334465;28;19925;-43
2022/12/29 00:52:08;;;;;;;;;;;21.80;38.30;;;;;;8334815;28;20363;-42
2022/12/29 00:56:09;;;;;;;;;;;21.80;38.30;;;;;;8333926;28;19917;-43
2022/12/29 01:00:10;;;;;;;;;;;21.70;38.20;;;;;;8334776;28;19917;-43
2022/12/29 01:04:11;;;;;;;;;;;21.80;38.20;;;;;;8332198;28;20055;-42
2022/12/29 01:08:11;;;;;;;;;;;21.80;38.20;;;;;;8333459;28;19925;-43
2022/12/29 01:12:12;;;;;;;;;;;21.80;38.20;;;;;;8334345;28;19921;-42
2022/12/29 01:16:12;;;;;;;;;;;21.80;38.20;;;;;;8333836;28;19953;-43
2022/12/29 01:20:13;;;;;;;;;;;21.70;38.10;;;;;;8333542;28;19913;-42
2022/12/29 01:24:15;;;;;;;;;;;21.70;38.10;;;;;;8334062;28;19919;-42
2022/12/29 01:28:15;;;;;;;;;;;21.70;38.20;;;;;;8332356;28;19925;-44
2022/12/29 01:32:15;;;;;;;;;;;21.70;38.10;;;;;;8332889;28;19921;-42
2022/12/29 01:36:17;;;;;;;;;;;21.70;38.20;;;;;;8326796;28;19967;-43
2022/12/29 01:40:17;;;;;;;;;;;21.70;38.20;;;;;;8333292;28;20382;-43
2022/12/29 01:44:36;;;;;;;;;;;21.60;38.30;;;;;;8282526;28;19918;-43
2022/12/29 01:48:37;;;;;;;;;;;21.60;38.40;;;;;;8330014;28;19969;-43
2022/12/29 01:52:40;;;;;;;;;;;21.60;38.30;;;;;;8326429;28;19933;-43
2022/12/29 01:56:40;;;;;;;;;;;21.60;38.50;;;;;;8332428;28;20371;-43
2022/12/29 02:00:41;;;;;;;;;;;21.60;38.60;;;;;;8330275;28;19922;-43
2022/12/29 02:04:44;;;;;;;;;;;21.40;36.90;;;;;;8330058;28;19971;-43
2022/12/29 02:08:45;;;;;;;;;;;21.30;37.90;;;;;;8331627;28;19932;-43
2022/12/29 02:12:46;;;;;;;;;;;21.20;37.80;;;;;;8332348;28;19913;-43
2022/12/29 02:17:13;;;;;;;;;;;21.20;37.70;;;;;;8331064;28;19946;-43
2022/12/29 02:21:19;;;;;;;;;;;21.20;37.70;;;;;;8332061;28;19913;-43
2022/12/29 02:25:38;;;;;;;;;;;21.10;37.60;;;;;;8331715;28;19921;-43
2022/12/29 02:29:50;;;;;;;;;;;21.10;37.60;;;;;;8332502;28;20401;-43
2022/12/29 02:34:17;;;;;;;;;;;21.10;37.60;;;;;;8331678;28;19971;-43
2022/12/29 02:38:17;;;;;;;;;;;21.00;37.60;;;;;;8331103;28;19918;-43
2022/12/29 02:42:29;;;;;;;;;;;21.00;37.70;;;;;;8331529;28;19933;-43
2022/12/29 02:46:37;;;;;;;;;;;21.00;37.70;;;;;;8330920;28;19931;-43
2022/12/29 02:50:39;;;;;;;;;;;21.00;37.70;;;;;;8331586;28;20397;-43
2022/12/29 02:54:40;;;;;;;;;;;20.90;37.70;;;;;;8331318;28;19921;-43
2022/12/29 02:58:41;;;;;;;;;;;20.90;37.70;;;;;;8330484;28;19921;-43
2022/12/29 03:02:50;;;;;;;;;;;20.90;37.70;;;;;;8331161;28;20413;-43
2022/12/29 03:06:59;;;;;;;;;;;20.90;37.70;;;;;;8330787;28;19933;-43
2022/12/29 03:11:00;;;;;;;;;;;20.90;37.80;;;;;;8330183;28;20382;-43
2022/12/29 03:19:22;;;;;;;;;;;20.90;37.80;;;;;;8332557;28;20297;-42
2022/12/29 03:23:23;;;;;;;;;;;20.80;37.80;;;;;;8330282;28;19917;-43
2022/12/29 03:27:32;;;;;;;;;;;20.80;37.90;;;;;;8330349;28;20295;-43
2022/12/29 03:31:32;;;;;;;;;;;20.80;38.00;;;;;;8329890;28;19918;-42
2022/12/29 03:35:35;;;;;;;;;;;20.70;37.90;;;;;;8330418;28;20013;-43
2022/12/29 03:39:36;;;;;;;;;;;20.70;37.90;;;;;;8330085;28;19973;-43
2022/12/29 03:43:37;;;;;;;;;;;20.70;37.90;;;;;;8329431;28;19917;-43
2022/12/29 03:47:37;;;;;;;;;;;20.70;38.00;;;;;;8329875;28;20174;-42
2022/12/29 03:51:38;;;;;;;;;;;20.70;38.00;;;;;;8329939;28;19921;-43
2022/12/29 03:55:38;;;;;;;;;;;20.60;37.90;;;;;;8329599;28;19917;-43
2022/12/29 03:59:39;;;;;;;;;;;20.60;38.00;;;;;;8330069;28;19953;-43
2022/12/29 04:03:39;;;;;;;;;;;20.60;38.00;;;;;;8329641;28;19917;-43
2022/12/29 04:07:40;;;;;;;;;;;20.60;38.00;;;;;;8329160;28;20011;-43
2022/12/29 04:11:40;;;;;;;;;;;20.50;38.00;;;;;;8329448;28;19918;-42
2022/12/29 04:15:42;;;;;;;;;;;20.50;38.00;;;;;;8329746;28;20001;-43
2022/12/29 04:19:42;;;;;;;;;;;20.50;38.10;;;;;;8329171;28;19932;-43
2022/12/29 04:23:43;;;;;;;;;;;20.60;38.00;;;;;;8329329;28;19972;-43
2022/12/29 04:27:43;;;;;;;;;;;20.60;37.90;;;;;;8329267;28;19925;-43
2022/12/29 04:31:43;;;;;;;;;;;20.60;37.80;;;;;;8328835;28;19913;-43
2022/12/29 04:35:44;;;;;;;;;;;20.60;37.80;;;;;;8329441;28;19913;-43
2022/12/29 04:39:45;;;;;;;;;;;20.70;37.80;;;;;;8330126;28;19917;-43
2022/12/29 04:43:45;;;;;;;;;;;20.70;37.80;;;;;;8334580;28;19949;-43
2022/12/29 04:47:46;;;;;;;;;;;20.70;37.80;;;;;;8335119;28;19940;-43
2022/12/29 04:51:46;;;;;;;;;;;20.70;38.30;;;;;;8335137;28;19957;-43
2022/12/29 04:55:50;;;;;;;;;;;20.80;37.80;;;;;;8334467;28;19928;-43
2022/12/29 04:59:51;;;;;;;;;;;20.70;37.70;;;;;;8334489;28;19956;-44
2022/12/29 05:03:53;;;;;;;;;;;20.80;37.70;;;;;;8333726;28;22282;-43
2022/12/29 05:07:53;;;;;;;;;;;20.80;37.70;;;;;;8333888;28;19948;-43
2022/12/29 05:11:54;;;;;;;;;;;20.80;37.70;;;;;;8333535;28;19913;-43
2022/12/29 05:15:54;;;;;;;;;;;20.80;38.20;;;;;;8334525;28;19917;-43
2022/12/29 05:19:55;;;;;;;;;;;20.80;37.60;;;;;;8333613;28;19917;-43
2022/12/29 05:23:55;;;;;;;;;;;20.90;37.60;;;;;;8333882;28;19917;-43
2022/12/29 05:27:56;;;;;;;;;;;20.90;37.60;;;;;;8333723;28;20436;-43
2022/12/29 05:31:56;;;;;;;;;;;20.80;37.50;;;;;;8333204;28;19948;-43
2022/12/29 05:35:56;;;;;;;;;;;20.90;37.50;;;;;;8333682;28;19917;-43
2022/12/29 05:39:59;;;;;;;;;;;20.90;37.50;;;;;;8333583;28;19917;-43
2022/12/29 05:44:00;;;;;;;;;;;20.90;37.50;;;;;;8332826;28;19928;-43
2022/12/29 05:48:00;;;;;;;;;;;20.90;37.50;;;;;;8333053;28;19925;-43
2022/12/29 05:52:01;;;;;;;;;;;20.90;37.40;;;;;;8332377;28;19928;-43
2022/12/29 05:56:01;;;;;;;;;;;21.00;37.40;;;;;;8332786;28;20382;-43
2022/12/29 06:00:03;;;;;;;;;;;21.00;37.50;;;;;;8332728;28;19917;-43
2022/12/29 06:04:03;;;;;;;;;;;21.00;37.40;;;;;;8332662;28;19995;-43
2022/12/29 06:08:04;;;;;;;;;;;21.00;37.40;;;;;;8332024;28;20274;-43
2022/12/29 06:12:04;;;;;;;;;;;21.00;37.40;;;;;;8332708;28;19913;-43
2022/12/29 06:16:05;;;;;;;;;;;21.00;37.40;;;;;;8332422;28;19917;-43
2022/12/29 06:20:06;;;;;;;;;;;21.10;37.50;;;;;;8331689;28;19917;-43
2022/12/29 06:24:07;;;;;;;;;;;21.10;37.50;;;;;;8332227;28;19925;-43
2022/12/29 06:28:07;;;;;;;;;;;21.10;37.40;;;;;;8331802;28;20310;-43
2022/12/29 06:32:08;;;;;;;;;;;21.10;37.40;;;;;;8331976;28;19924;-43
2022/12/29 06:36:08;;;;;;;;;;;21.10;37.40;;;;;;8331743;28;20016;-43
2022/12/29 06:40:10;;;;;;;;;;;21.10;37.30;;;;;;8331646;28;19971;-43
2022/12/29 06:44:10;;;;;;;;;;;21.20;37.40;;;;;;8330789;28;19923;-44
2022/12/29 06:48:10;;;;;;;;;;;21.10;37.30;;;;;;8331214;28;19922;-43
2022/12/29 06:52:11;;;;;;;;;;;21.20;37.30;;;;;;8331638;28;19921;-43
2022/12/29 06:56:11;;;;;;;;;;;21.20;37.20;;;;;;8330593;28;19959;-43
2022/12/29 07:00:12;;;;;;;;;;;21.20;37.30;;;;;;8330904;28;19924;-41
2022/12/29 07:04:13;;;;;;;;;;;21.20;37.30;;;;;;8330617;28;19917;-41
2022/12/29 07:08:13;;;;;;;;;;;21.20;37.30;;;;;;8330143;28;20513;-42
2022/12/29 07:12:14;;;;;;;;;;;21.20;37.40;;;;;;8331186;28;19913;-42
2022/12/29 07:16:14;;;;;;;;;;;21.20;37.30;;;;;;8330646;28;20294;-42
2022/12/29 07:20:15;;;;;;;;;;;21.20;37.20;;;;;;8330158;28;20444;-42
2022/12/29 07:24:15;;;;;;;;;;;21.20;37.30;;;;;;8330276;28;20051;-42
2022/12/29 07:28:16;;;;;;;;;;;21.20;37.30;;;;;;8330064;28;19929;-42
2022/12/29 07:32:16;;;;;;;;;;;21.20;37.20;;;;;;8329995;28;19917;-42
2022/12/29 07:36:17;;;;;;;;;;;21.20;37.30;;;;;;8330288;28;20020;-42
2022/12/29 07:40:17;;;;;;;;;;;21.20;37.20;;;;;;8330403;28;20011;-42
2022/12/29 07:44:18;;;;;;;;;;;21.20;37.30;;;;;;8305341;28;19917;-43
2022/12/29 07:48:18;;;;;;;;;;;21.20;37.30;;;;;;8329839;28;20012;-43
2022/12/29 07:52:18;;;;;;;;;;;21.20;37.30;;;;;;8329801;28;20381;-43
2022/12/29 07:56:19;;;;;;;;;;;21.30;37.30;;;;;;8329684;28;19921;-43
2022/12/29 08:00:20;;;;;;;;;;;21.20;37.20;;;;;;8329692;28;19917;-42
2022/12/29 08:04:20;;;;;;;;;;;21.30;37.30;;;;;;8329332;28;20526;-42
2022/12/29 08:08:21;;;;;;;;;;;21.30;37.30;;;;;;8329019;28;19926;-43
2022/12/29 08:12:21;;;;;;;;;;;21.30;37.20;;;;;;8329674;28;19948;-43
2022/12/29 08:16:21;;;;;;;;;;;21.30;37.30;;;;;;8332388;28;19917;-43
2022/12/29 08:20:22;;;;;;;;;;;21.30;37.30;;;;;;8335700;28;20374;-43
2022/12/29 08:24:22;;;;;;;;;;;21.30;37.20;;;;;;8335682;28;20270;-43
2022/12/29 08:28:23;;;;;;;;;;;21.30;37.20;;;;;;8335031;28;19925;-43
2022/12/29 08:32:23;;;;;;;;;;;21.30;37.30;;;;;;8335661;28;19921;-44
2022/12/29 08:36:24;;;;;;;;;;;21.30;37.30;;;;;;8335282;28;19917;-43
2022/12/29 08:40:24;;;;;;;;;;;21.30;37.20;;;;;;8334701;28;19917;-43
2022/12/29 08:44:25;;;;;;;;;;;21.30;37.20;;;;;;8335403;28;19917;-44
2022/12/29 08:48:25;;;;;;;;;;;21.30;37.20;;;;;;8334979;28;20023;-44
2022/12/29 08:52:26;;;;;;;;;;;21.40;37.30;;;;;;8334952;28;19921;-42
2022/12/29 08:56:26;;;;;;;;;;;21.40;37.30;;;;;;8334679;28;19956;-43
2022/12/29 09:00:27;;;;;;;;;;;21.40;37.20;;;;;;8335032;28;20359;-43
2022/12/29 09:04:27;;;;;;;;;;;21.40;37.30;;;;;;8334200;28;19924;-42
2022/12/29 09:08:28;;;;;;;;;;;21.40;37.30;;;;;;8334682;28;19921;-42
2022/12/29 09:12:28;;;;;;;;;;;21.40;37.30;;;;;;8334500;28;19948;-42
2022/12/29 09:16:29;;;;;;;;;;;21.40;37.30;;;;;;8333639;28;19924;-42
2022/12/29 09:20:29;;;;;;;;;;;21.40;37.30;;;;;;8333951;28;19917;-44
2022/12/29 09:24:30;;;;;;;;;;;21.40;37.30;;;;;;8333912;28;19993;-42
2022/12/29 09:28:31;;;;;;;;;;;21.40;37.30;;;;;;8333113;28;19925;-43
2022/12/29 09:32:32;;;;;;;;;;;21.40;37.30;;;;;;8333840;28;20410;-43
2022/12/29 09:36:32;;;;;;;;;;;21.40;37.30;;;;;;8333751;28;19918;-43
2022/12/29 09:40:33;;;;;;;;;;;21.40;37.30;;;;;;8332808;28;19928;-43
2022/12/29 09:44:46;;;;;;;;;;;21.40;37.30;;;;;;8333785;28;19917;-44
2022/12/29 09:49:15;;;;;;;;;;;21.40;37.30;;;;;;8333083;28;19921;-44
2022/12/29 09:53:21;;;;;;;;;;;21.40;37.30;;;;;;8262141;28;19921;-45
2022/12/29 09:57:25;;;;;;;;;;;21.40;37.40;;;;;;8332864;28;20297;-44
2022/12/29 10:01:32;;;;;;;;;;;21.40;37.30;;;;;;8332391;28;19917;-44
2022/12/29 10:05:42;;;;;;;;;;;21.40;37.30;;;;;;8332860;28;19960;-44
2022/12/29 10:09:42;;;;;;;;;;;21.40;37.30;;;;;;8332640;28;20025;-44
2022/12/29 10:14:02;;;;;;;;;;;21.50;37.40;;;;;;8331991;28;19924;-44
2022/12/29 10:18:10;;;;;;;;;;;21.40;37.30;;;;;;8332483;28;19978;-44
2022/12/29 10:22:19;;;;;;;;;;;21.40;37.40;;;;;;8332077;28;19921;-44
2022/12/29 10:26:21;;;;;;;;;;;21.50;37.40;;;;;;8331970;28;19929;-44
2022/12/29 10:30:22;;;;;;;;;;;21.40;37.40;;;;;;8332162;28;19959;-44
2022/12/29 10:34:25;;;;;;;;;;;21.50;37.50;;;;;;8331512;28;20324;-43
2022/12/29 10:38:28;;;;;;;;;;;21.40;37.50;;;;;;8331410;28;20388;-44
2022/12/29 10:42:36;;;;;;;;;;;21.40;37.50;;;;;;8331572;28;19918;-44
2022/12/29 10:46:37;;;;;;;;;;;21.50;37.50;;;;;;8330942;28;19932;-44
2022/12/29 10:50:42;;;;;;;;;;;21.50;37.50;;;;;;8331300;28;20343;-44
2022/12/29 10:54:43;;;;;;;;;;;21.40;37.40;;;;;;8330605;28;19924;-44
2022/12/29 10:58:46;;;;;;;;;;;21.50;37.40;;;;;;8330796;28;19993;-44
2022/12/29 11:03:01;;;;;;;;;;;21.50;37.40;;;;;;8330891;28;20489;-44
2022/12/29 11:07:03;;;;;;;;;;;21.50;37.40;;;;;;8329652;28;19925;-44
2022/12/29 11:11:04;;;;;;;;;;;21.50;37.50;;;;;;8329580;28;20371;-44
2022/12/29 11:15:08;;;;;;;;;;;21.50;37.50;;;;;;8330958;28;19917;-44
2022/12/29 11:19:22;;;;;;;;;;;21.50;37.60;;;;;;8330535;28;19913;-43
2022/12/29 11:23:30;;;;;;;;;;;21.50;37.60;;;;;;8330486;28;19963;-44
2022/12/29 11:27:30;;;;;;;;;;;21.50;37.60;;;;;;8330251;28;19986;-43
2022/12/29 11:31:31;;;;;;;;;;;21.50;37.60;;;;;;8329855;28;19921;-44
2022/12/29 11:35:36;;;;;;;;;;;21.50;37.50;;;;;;8330126;28;19921;-44
2022/12/29 11:39:38;;;;;;;;;;;21.50;37.50;;;;;;8330342;28;20019;-44
2022/12/29 11:43:41;;;;;;;;;;;21.50;37.40;;;;;;8329867;28;19913;-44
2022/12/29 11:47:43;;;;;;;;;;;21.50;37.40;;;;;;8329878;28;19941;-45
2022/12/29 11:51:45;;;;;;;;;;;21.50;37.40;;;;;;8334424;28;20016;-44
2022/12/29 11:55:59;;;;;;;;;;;21.50;37.50;;;;;;8336174;28;19944;-44
2022/12/29 12:00:01;;;;;;;;;;;21.50;37.50;;;;;;8336874;28;19917;-44
2022/12/29 12:04:04;;;;;;;;;;;21.50;37.50;;;;;;8336772;28;20370;-45
2022/12/29 12:08:10;;;;;;;;;;;21.50;37.40;;;;;;8335807;28;19925;-44
2022/12/29 12:12:18;;;;;;;;;;;21.50;37.40;;;;;;8336409;28;19925;-44
2022/12/29 12:16:21;;;;;;;;;;;21.50;37.40;;;;;;8335769;28;19918;-43
2022/12/29 12:20:35;;;;;;;;;;;21.50;37.40;;;;;;8335884;28;19917;-44
2022/12/29 12:24:39;;;;;;;;;;;21.60;37.40;;;;;;8336103;28;19914;-44
2022/12/29 12:28:48;;;;;;;;;;;21.50;37.90;;;;;;8335348;28;19921;-44
2022/12/29 12:33:04;;;;;;;;;;;21.60;37.40;;;;;;8335485;28;19921;-44
2022/12/29 12:37:04;;;;;;;;;;;21.50;37.40;;;;;;8335497;28;19959;-44
2022/12/29 12:41:08;;;;;;;;;;;21.50;37.40;;;;;;8334783;28;20279;-44
2022/12/29 12:45:28;;;;;;;;;;;21.50;37.50;;;;;;8335185;28;19971;-44
2022/12/29 12:49:42;;;;;;;;;;;21.50;37.40;;;;;;8334725;28;20019;-44
2022/12/29 12:53:49;;;;;;;;;;;21.60;37.50;;;;;;8335274;28;19921;-44
2022/12/29 12:57:55;;;;;;;;;;;21.50;37.50;;;;;;8334590;28;19917;-43
2022/12/29 13:02:12;;;;;;;;;;;21.50;37.50;;;;;;8333522;28;19924;-44
2022/12/29 13:06:12;;;;;;;;;;;21.50;37.50;;;;;;8334386;28;19925;-44
2022/12/29 13:10:20;;;;;;;;;;;21.50;37.50;;;;;;8334833;28;19994;-44
2022/12/29 13:14:44;;;;;;;;;;;21.60;37.60;;;;;;8334171;28;19913;-43
2022/12/29 13:19:03;;;;;;;;;;;21.50;37.50;;;;;;8273053;28;19961;-43
2022/12/29 13:23:09;;;;;;;;;;;21.50;37.50;;;;;;8326410;28;19917;-43
2022/12/29 13:27:22;;;;;;;;;;;21.60;37.60;;;;;;8333758;28;20003;-44
2022/12/29 13:31:29;;;;;;;;;;;21.50;37.60;;;;;;8333336;28;19913;-44
2022/12/29 13:35:32;;;;;;;;;;;21.60;37.60;;;;;;8333597;28;19952;-43
2022/12/29 13:39:34;;;;;;;;;;;21.60;37.60;;;;;;8333766;28;20325;-44
2022/12/29 13:43:36;;;;;;;;;;;21.60;37.60;;;;;;8332840;28;19921;-43
2022/12/29 13:47:50;;;;;;;;;;;21.60;37.60;;;;;;8333310;28;19976;-44
2022/12/29 13:51:52;;;;;;;;;;;21.60;37.60;;;;;;8333492;28;19921;-43
2022/12/29 13:55:56;;;;;;;;;;;21.60;37.70;;;;;;8332392;28;20035;-43
2022/12/29 14:00:00;;;;;;;;;;;21.60;37.70;;;;;;8333122;28;20024;-43
2022/12/29 14:04:03;;;;;;;;;;;21.60;37.70;;;;;;8332708;28;19917;-43
2022/12/29 14:08:04;;;;;;;;;;;21.60;37.70;;;;;;8330942;28;20012;-44
2022/12/29 14:12:19;;;;;;;;;;;21.60;37.60;;;;;;8331570;28;20000;-44
2022/12/29 14:16:37;;;;;;;;;;;21.60;37.60;;;;;;8331738;28;20028;-43
2022/12/29 14:20:38;;;;;;;;;;;21.60;37.60;;;;;;8331957;28;19917;-43
2022/12/29 14:24:43;;;;;;;;;;;21.60;37.60;;;;;;8332100;28;20374;-44
2022/12/29 14:28:45;;;;;;;;;;;21.60;37.60;;;;;;8331207;28;19925;-43
2022/12/29 14:33:06;;;;;;;;;;;21.60;37.60;;;;;;8331823;28;19968;-43
2022/12/29 14:37:21;;;;;;;;;;;21.60;37.60;;;;;;8330874;28;19917;-44
2022/12/29 14:41:26;;;;;;;;;;;21.60;37.60;;;;;;8331514;28;19917;-44
2022/12/29 14:45:28;;;;;;;;;;;21.60;37.60;;;;;;8331337;28;19959;-43
2022/12/29 14:49:38;;;;;;;;;;;21.60;37.60;;;;;;8330787;28;20393;-43
2022/12/29 14:53:49;;;;;;;;;;;21.60;37.70;;;;;;8331415;28;19921;-43
2022/12/29 14:57:52;;;;;;;;;;;21.60;38.10;;;;;;8330609;28;20363;-44
2022/12/29 15:01:54;;;;;;;;;;;21.60;37.60;;;;;;8330448;28;20297;-43
2022/12/29 15:06:11;;;;;;;;;;;21.60;37.60;;;;;;8330900;28;20378;-44
2022/12/29 15:10:14;;;;;;;;;;;21.60;37.60;;;;;;8331411;28;20378;-43
2022/12/29 15:14:33;;;;;;;;;;;21.60;37.60;;;;;;8330128;28;20335;-43
2022/12/29 15:18:33;;;;;;;;;;;21.60;37.60;;;;;;8330556;28;19921;-43
2022/12/29 15:22:34;;;;;;;;;;;21.60;37.60;;;;;;8329913;28;19919;-44
2022/12/29 15:26:38;;;;;;;;;;;21.60;37.70;;;;;;8329932;28;20063;-43
2022/12/29 15:30:49;;;;;;;;;;;21.60;37.80;;;;;;8330332;28;19917;-43
2022/12/29 15:34:51;;;;;;;;;;;21.60;37.70;;;;;;8329953;28;19917;-44
2022/12/29 15:38:52;;;;;;;;;;;21.60;37.70;;;;;;8330027;28;20333;-44
2022/12/29 15:42:57;;;;;;;;;;;21.60;37.70;;;;;;8330044;28;19917;-44
2022/12/29 15:47:01;;;;;;;;;;;21.60;37.70;;;;;;8329315;28;19929;-44
2022/12/29 15:51:01;;;;;;;;;;;21.60;37.80;;;;;;8329832;28;19921;-41
2022/12/29 15:55:02;;;;;;;;;;;21.60;37.80;;;;;;8330219;28;19918;-44
2022/12/29 15:59:03;;;;;;;;;;;21.60;37.80;;;;;;8329291;28;20271;-43
2022/12/29 16:03:04;;;;;;;;;;;21.60;37.90;;;;;;8329485;28;19953;-43
2022/12/29 16:07:05;;;;;;;;;;;21.60;37.90;;;;;;8329623;28;19968;-42
2022/12/29 16:11:19;;;;;;;;;;;21.60;38.00;;;;;;8329083;28;19917;-43
2022/12/29 16:15:21;;;;;;;;;;;21.60;38.00;;;;;;8330097;28;19917;-43
2022/12/29 16:19:24;;;;;;;;;;;21.60;38.00;;;;;;8328951;28;19993;-42
2022/12/29 16:23:26;;;;;;;;;;;21.60;37.90;;;;;;8330000;28;20472;-42
2022/12/29 16:27:37;;;;;;;;;;;21.60;37.90;;;;;;8329324;28;19921;-43
2022/12/29 16:31:59;;;;;;;;;;;21.70;38.00;;;;;;8328829;28;19932;-43
2022/12/29 16:36:01;;;;;;;;;;;21.60;38.00;;;;;;8330805;28;19913;-43
2022/12/29 16:40:20;;;;;;;;;;;21.60;38.00;;;;;;8335387;28;20004;-43
2022/12/29 16:44:30;;;;;;;;;;;21.60;38.00;;;;;;8334809;28;20477;-43
2022/12/29 16:48:35;;;;;;;;;;;21.60;38.00;;;;;;8335032;28;20015;-43
2022/12/29 16:52:36;;;;;;;;;;;21.60;38.10;;;;;;8334680;28;19921;-43
2022/12/29 16:56:38;;;;;;;;;;;21.60;38.10;;;;;;8332265;28;19927;-43
2022/12/29 17:00:39;;;;;;;;;;;21.60;38.60;;;;;;8334869;28;19959;-44
2022/12/29 17:04:39;;;;;;;;;;;21.60;38.30;;;;;;8334169;28;19917;-43
2022/12/29 17:08:40;;;;;;;;;;;21.60;38.30;;;;;;8334592;28;19957;-43
2022/12/29 17:12:41;;;;;;;;;;;21.60;38.30;;;;;;8333468;28;19928;-43
2022/12/29 17:16:42;;;;;;;;;;;21.60;38.20;;;;;;8333843;28;19913;-43
2022/12/29 17:20:42;;;;;;;;;;;21.70;38.30;;;;;;8334258;28;19917;-43
2022/12/29 17:24:43;;;;;;;;;;;21.70;38.30;;;;;;8334047;28;19940;-44
2022/12/29 17:28:44;;;;;;;;;;;21.70;38.30;;;;;;8331959;28;19932;-42
2022/12/29 17:32:56;;;;;;;;;;;21.70;38.30;;;;;;8333753;28;19924;-43
2022/12/29 17:36:57;;;;;;;;;;;21.70;38.30;;;;;;8337109;28;19913;-43
2022/12/29 17:40:58;;;;;;;;;;;21.70;38.30;;;;;;8333072;28;20011;-43
2022/12/29 17:45:00;;;;;;;;;;;21.70;38.20;;;;;;8333164;28;19940;-43
2022/12/29 17:49:00;;;;;;;;;;;21.70;38.20;;;;;;8332933;28;19925;-43
2022/12/29 17:53:05;;;;;;;;;;;21.70;38.20;;;;;;8332957;28;19927;-43
2022/12/29 17:57:08;;;;;;;;;;;21.70;38.20;;;;;;8332842;28;19920;-45
2022/12/29 18:01:09;;;;;;;;;;;21.70;38.20;;;;;;8333112;28;19923;-43
2022/12/29 18:05:23;;;;;;;;;;;21.70;38.20;;;;;;8332221;28;19917;-43
2022/12/29 18:09:24;;;;;;;;;;;21.70;38.30;;;;;;8332273;28;19932;-43
2022/12/29 18:13:25;;;;;;;;;;;21.70;38.30;;;;;;8331870;28;19983;-42
2022/12/29 18:17:26;;;;;;;;;;;21.70;38.30;;;;;;8323240;28;20012;-43
2022/12/29 18:21:26;;;;;;;;;;;21.80;38.40;;;;;;8329560;28;19928;-42
2022/12/29 18:25:46;;;;;;;;;;;21.70;38.30;;;;;;8330726;28;19952;-42
2022/12/29 18:29:47;;;;;;;;;;;21.80;38.40;;;;;;8321957;28;19936;-42
2022/12/29 18:33:48;;;;;;;;;;;21.80;38.50;;;;;;8313439;28;20362;-43
2022/12/29 18:37:49;;;;;;;;;;;21.80;38.40;;;;;;8330415;28;20286;-43
2022/12/29 18:41:49;;;;;;;;;;;21.90;38.60;;;;;;8331089;28;20000;-43
2022/12/29 18:45:50;;;;;;;;;;;21.90;38.60;;;;;;8331102;28;19924;-44
2022/12/29 18:49:51;;;;;;;;;;;22.00;38.60;;;;;;8330487;28;20003;-45
2022/12/29 18:53:55;;;;;;;;;;;22.00;38.70;;;;;;8329118;28;19925;-44
2022/12/29 18:57:55;;;;;;;;;;;22.00;38.60;;;;;;8330803;28;19913;-44
2022/12/29 19:01:56;;;;;;;;;;;22.10;38.60;;;;;;8330245;28;20457;-44
2022/12/29 19:05:56;;;;;;;;;;;22.10;38.60;;;;;;8329729;28;19925;-44
2022/12/29 19:09:58;;;;;;;;;;;22.10;38.50;;;;;;8330273;28;20027;-44
2022/12/29 19:13:59;;;;;;;;;;;22.10;38.50;;;;;;8329688;28;19921;-45
2022/12/29 19:18:00;;;;;;;;;;;22.10;38.60;;;;;;8329163;28;20420;-44
2022/12/29 19:22:01;;;;;;;;;;;22.20;38.60;;;;;;8330908;28;19917;-44
2022/12/29 19:26:01;;;;;;;;;;;22.20;38.50;;;;;;8328668;28;20428;-44
2022/12/29 19:30:02;;;;;;;;;;;22.20;38.50;;;;;;8330177;28;19957;-42
2022/12/29 19:34:02;;;;;;;;;;;22.20;38.50;;;;;;8328621;28;19913;-43
2022/12/29 19:38:03;;;;;;;;;;;22.30;38.50;;;;;;8329438;28;19917;-42
2022/12/29 19:42:04;;;;;;;;;;;22.30;38.50;;;;;;8329173;28;19964;-44
2022/12/29 19:46:06;;;;;;;;;;;22.30;38.40;;;;;;8329595;28;19925;-43
2022/12/29 19:50:07;;;;;;;;;;;22.30;38.50;;;;;;8329253;28;20267;-42
2022/12/29 19:54:08;;;;;;;;;;;22.40;38.50;;;;;;8329356;28;19932;-42
2022/12/29 19:58:08;;;;;;;;;;;22.40;38.50;;;;;;8329281;28;19921;-42
2022/12/29 20:02:32;;;;;;;;;;;22.40;38.40;;;;;;8308028;28;20068;-42
2022/12/29 20:06:32;;;;;;;;;;;22.50;38.30;;;;;;8290250;28;20280;-43
2022/12/29 20:10:33;;;;;;;;;;;22.60;38.30;;;;;;8320292;28;19918;-42
2022/12/29 20:14:33;;;;;;;;;;;22.60;38.20;;;;;;8335832;28;20469;-43
2022/12/29 20:18:34;;;;;;;;;;;22.60;38.20;;;;;;8333918;28;19917;-43
2022/12/29 20:22:35;;;;;;;;;;;22.70;38.20;;;;;;8335489;28;19920;-42
2022/12/29 20:26:35;;;;;;;;;;;22.70;38.20;;;;;;8335615;28;20383;-42
2022/12/29 20:30:35;;;;;;;;;;;22.80;38.20;;;;;;8334070;28;19924;-44
2022/12/29 20:34:36;;;;;;;;;;;22.80;38.20;;;;;;8335015;28;19921;-43
2022/12/29 20:38:37;;;;;;;;;;;22.80;38.20;;;;;;8333958;28;19975;-42
2022/12/29 20:42:38;;;;;;;;;;;22.80;38.00;;;;;;8335350;28;19925;-43
2022/12/29 20:46:38;;;;;;;;;;;22.90;38.10;;;;;;8334428;28;19976;-43
2022/12/29 20:50:39;;;;;;;;;;;22.90;38.10;;;;;;8334111;28;19917;-44
2022/12/29 20:54:39;;;;;;;;;;;22.90;38.10;;;;;;8334961;28;19917;-43
2022/12/29 20:58:40;;;;;;;;;;;22.90;38.10;;;;;;8334148;28;20376;-43
2022/12/29 21:02:40;;;;;;;;;;;22.90;38.10;;;;;;8333760;28;19917;-43
2022/12/29 21:06:41;;;;;;;;;;;23.00;38.20;;;;;;8334207;28;19975;-43
2022/12/29 21:10:44;;;;;;;;;;;23.00;38.10;;;;;;8333700;28;19967;-45
2022/12/29 21:14:44;;;;;;;;;;;23.00;38.00;;;;;;8334089;28;19918;-44
2022/12/29 21:18:45;;;;;;;;;;;23.00;38.10;;;;;;8333839;28;20363;-44
2022/12/29 21:22:46;;;;;;;;;;;23.00;38.10;;;;;;8333257;28;19913;-44
2022/12/29 21:26:47;;;;;;;;;;;23.00;38.10;;;;;;8333015;28;19940;-44
2022/12/29 21:30:48;;;;;;;;;;;23.00;38.10;;;;;;8333426;28;19921;-43
2022/12/29 21:34:49;;;;;;;;;;;22.90;38.10;;;;;;8333199;28;20008;-43
2022/12/29 21:38:49;;;;;;;;;;;22.90;38.20;;;;;;8333625;28;19921;-42
2022/12/29 21:42:50;;;;;;;;;;;22.90;38.30;;;;;;8332438;28;19924;-43
2022/12/29 21:46:50;;;;;;;;;;;22.80;38.30;;;;;;8331711;28;20386;-43
2022/12/29 21:55:11;;;;;;;;;;;22.80;38.40;;;;;;8333023;28;19970;-44
2022/12/29 22:16:28;;;;;;;;;;;22.60;39.30;;;;;;8328276;28;19928;-44
2022/12/29 22:20:30;;;;;;;;;;;22.60;38.80;;;;;;8326421;28;19917;-43
2022/12/29 22:24:30;;;;;;;;;;;22.50;38.90;;;;;;8329806;28;19927;-43
2022/12/29 22:28:31;;;;;;;;;;;22.50;39.10;;;;;;8327266;28;19925;-43
2022/12/29 22:32:32;;;;;;;;;;;22.50;39.30;;;;;;8330237;28;19956;-43
2022/12/29 22:36:33;;;;;;;;;;;22.50;39.50;;;;;;8329137;28;19920;-43
2022/12/29 22:40:34;;;;;;;;;;;22.40;39.30;;;;;;8328984;28;19960;-43
2022/12/29 22:44:34;;;;;;;;;;;22.40;39.40;;;;;;8330169;28;19917;-43
2022/12/29 22:48:35;;;;;;;;;;;22.40;40.10;;;;;;8331294;28;20004;-43
2022/12/29 22:52:36;;;;;;;;;;;22.30;39.90;;;;;;8330715;28;19921;-43
2022/12/29 22:56:40;;;;;;;;;;;22.30;40.00;;;;;;8327973;28;20290;-43
2022/12/29 23:00:41;;;;;;;;;;;22.30;40.00;;;;;;8328455;28;20355;-43
2022/12/29 23:04:42;;;;;;;;;;;22.30;40.10;;;;;;8327680;28;19921;-43
2022/12/29 23:08:42;;;;;;;;;;;22.30;40.20;;;;;;8326737;28;19932;-45
2022/12/29 23:12:43;;;;;;;;;;;22.40;40.20;;;;;;8330435;28;19964;-45
2022/12/29 23:16:43;;;;;;;;;;;22.40;40.40;;;;;;8328842;28;19917;-44
2022/12/29 23:20:46;;;;;;;;;;;22.40;40.30;;;;;;8330157;28;19967;-43
2022/12/29 23:24:46;;;;;;;;;;;22.30;40.50;;;;;;8330297;28;20301;-43
2022/12/29 23:28:47;;;;;;;;;;;22.40;40.50;;;;;;8329900;28;19932;-43
2022/12/29 23:32:48;;;;;;;;;;;22.30;40.50;;;;;;8329898;28;20015;-44
2022/12/29 23:36:49;;;;;;;;;;;22.30;40.60;;;;;;8329731;28;19921;-44
2022/12/29 23:40:50;;;;;;;;;;;22.30;41.00;;;;;;8329289;28;19917;-43
2022/12/29 23:44:50;;;;;;;;;;;22.30;40.50;;;;;;8330015;28;19940;-44
2022/12/29 23:48:51;;;;;;;;;;;22.30;40.50;;;;;;8316537;28;20293;-44
2022/12/29 23:52:51;;;;;;;;;;;22.30;40.60;;;;;;8309614;28;19921;-43
2022/12/29 23:56:51;;;;;;;;;;;22.30;40.60;;;;;;8320222;28;19918;-43
